createdAt,value
2017-09-25T00:00:20.894Z,9.30
2017-09-25T00:02:55.362Z,8.80
2017-09-25T00:05:29.067Z,8.93
2017-09-25T00:08:02.586Z,10.43
2017-09-25T00:10:36.130Z,9.53
2017-09-25T00:13:09.766Z,8.37
2017-09-25T00:15:44.058Z,9.30
2017-09-25T00:18:18.390Z,8.47
2017-09-25T00:20:52.129Z,8.77
2017-09-25T00:23:26.726Z,8.60
2017-09-25T00:26:00.282Z,8.13
2017-09-25T00:28:34.037Z,9.23
2017-09-25T00:31:07.528Z,8.10
2017-09-25T00:33:41.922Z,7.77
2017-09-25T00:36:15.814Z,8.20
2017-09-25T00:38:49.463Z,7.30
2017-09-25T00:41:23.123Z,6.90
2017-09-25T00:43:56.665Z,6.77
2017-09-25T00:46:30.258Z,5.97
2017-09-25T00:49:03.758Z,6.43
2017-09-25T00:51:37.459Z,6.33
2017-09-25T00:54:11.988Z,6.93
2017-09-25T00:56:45.646Z,6.40
2017-09-25T00:59:28.365Z,5.50
2017-09-25T01:02:15.035Z,6.60
2017-09-25T01:05:00.599Z,5.00
2017-09-25T01:07:34.399Z,5.70
2017-09-25T01:10:07.955Z,6.00
2017-09-25T01:12:41.595Z,5.47
2017-09-25T01:15:15.191Z,5.70
2017-09-25T01:17:48.773Z,5.63
2017-09-25T01:20:22.403Z,5.20
2017-09-25T01:22:55.861Z,5.30
2017-09-25T01:25:29.528Z,5.00
2017-09-25T01:28:03.095Z,5.30
2017-09-25T01:30:36.695Z,5.30
2017-09-25T01:33:10.168Z,4.83
2017-09-25T01:35:44.410Z,4.50
2017-09-25T01:38:17.999Z,4.87
2017-09-25T01:40:51.724Z,5.00
2017-09-25T01:43:25.521Z,4.67
2017-09-25T01:45:59.533Z,5.20
2017-09-25T01:48:33.230Z,8.27
2017-09-25T01:51:06.749Z,5.47
2017-09-25T01:53:40.434Z,6.03
2017-09-25T01:56:14.837Z,7.17
2017-09-25T01:58:48.666Z,6.07
2017-09-25T02:01:23.075Z,5.60
2017-09-25T02:03:56.630Z,5.97
2017-09-25T02:06:30.280Z,5.40
2017-09-25T02:09:03.833Z,5.30
2017-09-25T02:11:37.591Z,4.77
2017-09-25T02:14:11.210Z,4.43
2017-09-25T02:16:44.746Z,4.67
2017-09-25T02:19:19.831Z,4.87
2017-09-25T02:21:53.449Z,5.67
2017-09-25T02:24:27.087Z,5.23
2017-09-25T02:27:00.737Z,5.50
2017-09-25T02:29:34.337Z,5.60
2017-09-25T02:32:07.918Z,4.97
2017-09-25T02:34:41.526Z,5.47
2017-09-25T02:37:15.109Z,5.73
2017-09-25T02:39:48.826Z,5.90
2017-09-25T02:42:22.878Z,6.10
2017-09-25T02:44:56.484Z,6.03
2017-09-25T02:47:30.029Z,5.87
2017-09-25T02:50:03.646Z,5.20
2017-09-25T02:52:37.222Z,5.70
2017-09-25T02:55:10.805Z,6.27
2017-09-25T02:57:44.366Z,5.00
2017-09-25T03:00:18.246Z,5.27
2017-09-25T03:02:51.854Z,4.77
2017-09-25T03:05:25.419Z,4.67
2017-09-25T03:07:59.114Z,4.30
2017-09-25T03:10:33.445Z,4.60
2017-09-25T03:13:07.075Z,4.37
2017-09-25T03:15:40.779Z,4.33
2017-09-25T03:18:15.094Z,4.80
2017-09-25T03:20:48.790Z,6.13
2017-09-25T03:23:22.398Z,4.97
2017-09-25T03:25:55.903Z,5.00
2017-09-25T03:28:29.498Z,4.90
2017-09-25T03:31:03.099Z,5.40
2017-09-25T03:33:37.620Z,5.23
2017-09-25T03:36:11.076Z,4.40
2017-09-25T03:38:44.817Z,5.30
2017-09-25T03:41:19.103Z,5.70
2017-09-25T03:43:52.751Z,5.57
2017-09-25T03:46:26.464Z,5.40
2017-09-25T03:49:00.246Z,5.70
2017-09-25T03:51:33.749Z,5.30
2017-09-25T03:54:08.145Z,4.83
2017-09-25T03:56:41.762Z,4.50
2017-09-25T03:59:15.466Z,4.20
2017-09-25T04:01:49.761Z,4.70
2017-09-25T04:04:24.313Z,5.23
2017-09-25T04:06:57.966Z,5.17
2017-09-25T04:09:31.695Z,4.93
2017-09-25T04:12:05.286Z,5.83
2017-09-25T04:14:38.930Z,5.07
2017-09-25T04:17:13.245Z,5.20
2017-09-25T04:19:46.843Z,5.20
2017-09-25T04:22:20.438Z,5.40
2017-09-25T04:24:53.901Z,6.10
2017-09-25T04:27:27.515Z,5.17
2017-09-25T04:30:01.133Z,5.87
2017-09-25T04:32:34.714Z,6.33
2017-09-25T04:35:08.333Z,6.60
2017-09-25T04:37:41.742Z,6.30
2017-09-25T04:40:15.643Z,6.87
2017-09-25T04:42:49.242Z,6.43
2017-09-25T04:45:23.751Z,6.83
2017-09-25T04:47:58.187Z,6.17
2017-09-25T04:50:31.900Z,7.77
2017-09-25T04:53:05.498Z,6.43
2017-09-25T04:55:39.238Z,6.20
2017-09-25T04:58:12.678Z,5.63
2017-09-25T05:00:46.257Z,6.60
2017-09-25T05:03:19.906Z,5.57
2017-09-25T05:05:54.506Z,6.60
2017-09-25T05:08:28.310Z,6.20
2017-09-25T05:11:01.924Z,6.17
2017-09-25T05:13:35.498Z,6.77
2017-09-25T05:16:09.033Z,6.93
2017-09-25T05:18:42.734Z,7.40
2017-09-25T05:21:16.403Z,6.43
2017-09-25T05:23:50.147Z,6.37
2017-09-25T05:26:24.031Z,7.23
2017-09-25T05:28:57.610Z,6.20
2017-09-25T05:31:31.234Z,6.03
2017-09-25T05:34:04.734Z,6.63
2017-09-25T05:36:38.425Z,5.87
2017-09-25T05:39:11.903Z,7.23
2017-09-25T05:41:45.406Z,6.50
2017-09-25T05:44:19.098Z,6.77
2017-09-25T05:46:52.742Z,8.00
2017-09-25T05:49:26.442Z,5.33
2017-09-25T05:52:00.150Z,5.47
2017-09-25T05:54:34.446Z,5.90
2017-09-25T05:57:08.066Z,4.97
2017-09-25T05:59:42.387Z,5.57
2017-09-25T06:02:16.086Z,5.80
2017-09-25T06:04:49.691Z,5.50
2017-09-25T06:07:23.258Z,5.80
2017-09-25T06:09:56.795Z,5.50
2017-09-25T06:12:30.399Z,6.27
2017-09-25T06:15:03.952Z,6.30
2017-09-25T06:17:37.694Z,4.83
2017-09-25T06:20:11.294Z,5.20
2017-09-25T06:22:44.899Z,5.30
2017-09-25T06:25:18.589Z,5.90
2017-09-25T06:27:53.090Z,5.83
2017-09-25T06:30:26.718Z,6.00
2017-09-25T06:33:00.301Z,5.60
2017-09-25T06:35:33.887Z,6.23
2017-09-25T06:38:07.631Z,6.90
2017-09-25T06:40:41.182Z,6.57
2017-09-25T06:43:14.727Z,6.20
2017-09-25T06:45:49.261Z,6.43
2017-09-25T06:48:22.846Z,6.93
2017-09-25T06:50:56.447Z,5.60
2017-09-25T06:53:30.207Z,6.77
2017-09-25T06:56:05.714Z,7.03
2017-09-25T06:58:39.303Z,5.80
2017-09-25T07:01:12.938Z,6.80
2017-09-25T07:03:46.525Z,6.13
2017-09-25T07:06:20.097Z,6.37
2017-09-25T07:08:53.542Z,6.63
2017-09-25T07:11:28.015Z,5.67
2017-09-25T07:14:01.738Z,6.43
2017-09-25T07:16:35.431Z,6.70
2017-09-25T07:19:09.162Z,6.17
2017-09-25T07:21:42.740Z,6.50
2017-09-25T07:24:16.425Z,6.10
2017-09-25T07:26:50.419Z,6.90
2017-09-25T07:29:24.434Z,7.13
2017-09-25T07:31:58.848Z,6.87
2017-09-25T07:34:32.465Z,7.43
2017-09-25T07:37:05.975Z,6.60
2017-09-25T07:39:39.675Z,8.13
2017-09-25T07:42:13.810Z,6.43
2017-09-25T07:44:47.438Z,7.30
2017-09-25T07:47:20.946Z,5.60
2017-09-25T07:49:54.491Z,7.10
2017-09-25T07:52:28.092Z,6.83
2017-09-25T07:55:01.792Z,6.43
2017-09-25T07:57:35.297Z,7.03
2017-09-25T08:00:09.589Z,6.70
2017-09-25T08:02:43.248Z,7.80
2017-09-25T08:05:16.950Z,6.17
2017-09-25T08:07:50.454Z,7.10
2017-09-25T08:10:24.832Z,7.20
2017-09-25T08:13:00.770Z,7.20
2017-09-25T08:15:35.219Z,7.10
2017-09-25T08:18:08.906Z,8.20
2017-09-25T08:20:42.607Z,6.80
2017-09-25T08:23:16.414Z,6.50
2017-09-25T08:25:50.110Z,6.93
2017-09-25T08:28:23.831Z,5.97
2017-09-25T08:30:57.609Z,6.77
2017-09-25T08:33:31.546Z,6.30
2017-09-25T08:36:05.351Z,6.53
2017-09-25T08:38:39.650Z,6.00
2017-09-25T08:41:13.257Z,5.73
2017-09-25T08:43:46.851Z,5.57
2017-09-25T08:46:20.562Z,5.00
2017-09-25T08:48:54.257Z,5.87
2017-09-25T08:51:27.858Z,6.40
2017-09-25T08:54:01.422Z,5.93
2017-09-25T08:56:35.075Z,6.00
2017-09-25T08:59:09.572Z,5.20
2017-09-25T09:01:43.275Z,6.53
2017-09-25T09:04:16.894Z,5.87
2017-09-25T09:06:51.312Z,6.10
2017-09-25T09:09:25.012Z,6.20
2017-09-25T09:11:58.515Z,6.80
2017-09-25T09:14:32.078Z,7.40
2017-09-25T09:17:05.820Z,6.77
2017-09-25T09:19:39.420Z,6.70
2017-09-25T09:22:13.631Z,6.63
2017-09-25T09:24:47.119Z,6.43
2017-09-25T09:27:20.739Z,6.90
2017-09-25T09:29:54.450Z,6.77
2017-09-25T09:32:28.239Z,7.43
2017-09-25T09:35:01.803Z,6.77
2017-09-25T09:37:35.452Z,6.77
2017-09-25T09:40:09.263Z,6.37
2017-09-25T09:42:43.056Z,6.40
2017-09-25T09:45:16.714Z,7.03
2017-09-25T09:47:50.366Z,6.67
2017-09-25T09:50:24.069Z,6.57
2017-09-25T09:52:57.777Z,7.20
2017-09-25T09:55:31.478Z,7.43
2017-09-25T09:58:05.778Z,6.80
2017-09-25T10:00:39.384Z,5.97
2017-09-25T10:03:12.878Z,7.10
2017-09-25T10:05:46.603Z,7.40
2017-09-25T10:08:20.309Z,6.73
2017-09-25T10:10:54.118Z,6.20
2017-09-25T10:13:28.519Z,6.50
2017-09-25T10:16:03.164Z,7.00
2017-09-25T10:18:37.651Z,7.30
2017-09-25T10:21:11.243Z,7.00
2017-09-25T10:23:44.777Z,6.10
2017-09-25T10:26:18.563Z,7.60
2017-09-25T10:28:52.158Z,7.07
2017-09-25T10:31:25.728Z,6.37
2017-09-25T10:33:59.374Z,7.30
2017-09-25T10:36:33.074Z,7.40
2017-09-25T10:39:06.887Z,7.87
2017-09-25T10:41:41.475Z,6.50
2017-09-25T10:44:15.302Z,6.70
2017-09-25T10:46:48.816Z,6.13
2017-09-25T10:49:22.413Z,6.67
2017-09-25T10:51:55.911Z,7.40
2017-09-25T10:54:29.513Z,7.20
2017-09-25T10:57:03.790Z,6.70
2017-09-25T10:59:37.206Z,6.50
2017-09-25T11:02:11.570Z,6.30
2017-09-25T11:04:45.274Z,5.70
2017-09-25T11:07:18.882Z,6.40
2017-09-25T11:09:52.755Z,6.60
2017-09-25T11:12:26.622Z,6.57
2017-09-25T11:15:00.358Z,5.30
2017-09-25T11:17:34.590Z,5.27
2017-09-25T11:20:08.190Z,5.23
2017-09-25T11:22:41.888Z,6.50
2017-09-25T11:25:15.595Z,5.40
2017-09-25T11:27:49.084Z,5.93
2017-09-25T11:30:22.579Z,5.63
2017-09-25T11:32:56.178Z,4.97
2017-09-25T11:35:30.479Z,5.67
2017-09-25T11:38:04.798Z,5.83
2017-09-25T11:40:38.417Z,5.10
2017-09-25T11:43:12.119Z,5.03
2017-09-25T11:45:45.724Z,4.87
2017-09-25T11:48:19.622Z,4.40
2017-09-25T11:50:53.570Z,4.80
2017-09-25T11:53:27.152Z,5.20
2017-09-25T11:56:00.831Z,4.20
2017-09-25T11:58:34.335Z,4.40
2017-09-25T12:01:08.414Z,4.73
2017-09-25T12:03:41.950Z,4.37
2017-09-25T12:06:15.538Z,4.33
2017-09-25T12:08:49.147Z,3.83
2017-09-25T12:11:23.763Z,3.90
2017-09-25T12:13:59.121Z,4.40
2017-09-25T12:16:33.613Z,3.80
2017-09-25T12:19:07.959Z,3.97
2017-09-25T12:21:42.284Z,3.73
2017-09-25T12:24:15.869Z,5.27
2017-09-25T12:26:49.692Z,4.50
2017-09-25T12:29:23.182Z,4.73
2017-09-25T12:31:57.702Z,5.00
2017-09-25T12:34:31.983Z,4.47
2017-09-25T12:37:05.722Z,4.43
2017-09-25T12:39:39.442Z,3.90
2017-09-25T12:42:13.230Z,3.97
2017-09-25T12:44:46.763Z,4.70
2017-09-25T12:47:20.291Z,4.93
2017-09-25T12:49:53.875Z,5.47
2017-09-25T12:52:27.530Z,4.20
2017-09-25T12:55:01.079Z,4.43
2017-09-25T12:57:35.323Z,4.50
2017-09-25T13:00:08.849Z,4.33
2017-09-25T13:02:42.450Z,4.40
2017-09-25T13:05:16.818Z,3.50
2017-09-25T13:07:50.459Z,3.77
2017-09-25T13:10:24.529Z,4.10
2017-09-25T13:12:58.284Z,4.20
2017-09-25T13:15:31.882Z,4.20
2017-09-25T13:18:06.406Z,4.20
2017-09-25T13:20:40.001Z,4.17
2017-09-25T13:23:13.695Z,3.80
2017-09-25T13:25:47.339Z,3.87
2017-09-25T13:28:21.318Z,4.03
2017-09-25T13:30:54.918Z,4.10
2017-09-25T13:33:29.443Z,3.70
2017-09-25T13:36:03.014Z,3.83
2017-09-25T13:38:36.638Z,4.90
2017-09-25T13:41:10.100Z,3.83
2017-09-25T13:43:43.838Z,4.50
2017-09-25T13:46:17.327Z,3.83
2017-09-25T13:48:50.955Z,4.13
2017-09-25T13:51:25.165Z,4.90
2017-09-25T13:53:58.758Z,3.90
2017-09-25T13:56:32.382Z,4.03
2017-09-25T14:04:24.630Z,4.27
2017-09-25T14:06:58.330Z,4.33
2017-09-25T14:09:32.754Z,4.37
2017-09-25T14:12:07.039Z,3.83
2017-09-25T14:14:40.677Z,4.27
2017-09-25T14:17:14.267Z,3.50
2017-09-25T14:19:47.930Z,4.10
2017-09-25T14:22:21.750Z,3.73
2017-09-25T14:24:55.378Z,4.57
2017-09-25T14:27:29.042Z,3.70
2017-09-25T14:30:02.749Z,3.87
2017-09-25T14:32:36.454Z,3.80
2017-09-25T14:35:10.194Z,3.80
2017-09-25T14:37:43.795Z,4.70
2017-09-25T14:40:17.291Z,3.97
2017-09-25T14:42:50.848Z,3.87
2017-09-25T14:45:24.691Z,3.70
2017-09-25T14:47:58.910Z,3.80
2017-09-25T14:50:32.614Z,3.30
2017-09-25T14:53:06.211Z,4.10
2017-09-25T14:55:40.202Z,3.90
2017-09-25T14:58:14.510Z,4.23
2017-09-25T15:00:48.152Z,4.13
2017-09-25T15:03:21.660Z,4.00
2017-09-25T15:05:55.418Z,3.60
2017-09-25T15:08:28.907Z,3.97
2017-09-25T15:11:03.375Z,3.97
2017-09-25T15:13:37.070Z,3.90
2017-09-25T15:16:10.681Z,3.60
2017-09-25T15:18:44.273Z,4.00
2017-09-25T15:21:18.609Z,4.17
2017-09-25T15:23:52.497Z,4.50
2017-09-25T15:26:26.299Z,4.43
2017-09-25T15:28:59.898Z,4.50
2017-09-25T15:31:33.687Z,4.93
2017-09-25T15:34:07.568Z,4.10
2017-09-25T15:36:41.192Z,3.97
2017-09-25T15:39:14.763Z,4.13
2017-09-25T15:41:48.507Z,4.60
2017-09-25T15:44:22.118Z,3.83
2017-09-25T15:46:55.698Z,4.77
2017-09-25T15:49:30.196Z,4.93
2017-09-25T15:52:03.991Z,4.13
2017-09-25T15:54:37.650Z,4.40
2017-09-25T15:57:11.282Z,4.07
2017-09-25T15:59:45.575Z,4.20
2017-09-25T16:02:19.153Z,3.90
2017-09-25T16:04:52.559Z,3.20
2017-09-25T16:07:26.178Z,3.93
2017-09-25T16:09:59.769Z,3.70
2017-09-25T16:12:33.362Z,4.27
2017-09-25T16:15:06.982Z,3.63
2017-09-25T16:17:40.767Z,4.70
2017-09-25T16:20:14.380Z,4.70
2017-09-25T16:22:48.101Z,4.77
2017-09-25T16:25:21.783Z,4.90
2017-09-25T16:27:56.197Z,4.90
2017-09-25T16:30:30.238Z,4.73
2017-09-25T16:33:03.791Z,5.47
2017-09-25T16:35:37.201Z,5.30
2017-09-25T16:38:10.779Z,4.53
2017-09-25T16:40:44.362Z,4.00
2017-09-25T16:43:18.678Z,5.13
2017-09-25T16:45:52.426Z,3.60
2017-09-25T16:48:25.962Z,4.13
2017-09-25T16:51:00.309Z,4.30
2017-09-25T16:53:33.853Z,4.23
2017-09-25T16:56:07.408Z,4.10
2017-09-25T16:58:41.040Z,4.17
2017-09-25T17:01:14.535Z,3.47
2017-09-25T17:03:49.647Z,4.40
2017-09-25T17:06:23.967Z,3.80
2017-09-25T17:08:58.194Z,3.93
2017-09-25T17:11:31.824Z,4.03
2017-09-25T17:14:05.323Z,3.83
2017-09-25T17:16:38.850Z,3.70
2017-09-25T17:19:12.508Z,4.20
2017-09-25T17:21:46.026Z,3.60
2017-09-25T17:24:19.563Z,3.93
2017-09-25T17:26:53.070Z,4.13
2017-09-25T17:29:26.694Z,4.43
2017-09-25T17:32:00.204Z,4.37
2017-09-25T17:34:34.494Z,4.37
2017-09-25T17:37:08.711Z,4.73
2017-09-25T17:39:42.277Z,4.10
2017-09-25T17:42:15.715Z,4.17
2017-09-25T17:44:49.245Z,3.40
2017-09-25T17:47:22.870Z,3.73
2017-09-25T17:49:56.414Z,3.20
2017-09-25T17:52:30.626Z,3.90
2017-09-25T17:55:04.159Z,3.50
2017-09-25T17:57:38.430Z,3.13
2017-09-25T18:00:11.965Z,3.07
2017-09-25T18:02:46.357Z,4.30
2017-09-25T18:05:19.865Z,3.17
2017-09-25T18:07:54.269Z,5.60
2017-09-25T18:10:27.799Z,4.40
2017-09-25T18:13:02.199Z,4.90
2017-09-25T18:15:35.734Z,4.60
2017-09-25T18:18:09.275Z,4.60
2017-09-25T18:20:42.786Z,4.70
2017-09-25T18:23:16.299Z,4.40
2017-09-25T18:25:50.610Z,3.87
2017-09-25T18:28:25.026Z,5.30
2017-09-25T18:30:58.558Z,4.47
2017-09-25T18:33:32.190Z,4.47
2017-09-25T18:36:05.722Z,5.23
2017-09-25T18:38:39.242Z,4.53
2017-09-25T18:41:12.782Z,4.57
2017-09-25T18:43:46.430Z,3.83
2017-09-25T18:46:20.084Z,3.70
2017-09-25T18:48:53.758Z,3.90
2017-09-25T18:51:27.368Z,4.13
2017-09-25T18:54:00.966Z,6.13
2017-09-25T18:56:35.130Z,5.23
2017-09-25T18:59:08.756Z,3.57
2017-09-25T19:01:42.390Z,4.20
2017-09-25T19:04:15.986Z,3.97
2017-09-25T19:06:49.799Z,3.10
2017-09-25T19:09:24.106Z,4.10
2017-09-25T19:11:57.703Z,3.60
2017-09-25T19:14:31.242Z,4.03
2017-09-25T19:17:04.935Z,3.93
2017-09-25T19:19:39.321Z,4.17
2017-09-25T19:22:13.026Z,4.93
2017-09-25T19:24:46.498Z,4.17
2017-09-25T19:27:20.335Z,3.77
2017-09-25T19:29:54.043Z,4.43
2017-09-25T19:32:27.619Z,4.00
2017-09-25T19:35:01.968Z,3.90
2017-09-25T19:37:35.559Z,4.07
2017-09-25T19:40:09.055Z,3.77
2017-09-25T19:42:43.579Z,4.20
2017-09-25T19:45:17.271Z,5.30
2017-09-25T19:47:53.434Z,4.50
2017-09-25T19:50:30.678Z,4.47
2017-09-25T19:53:04.306Z,4.00
2017-09-25T19:55:40.454Z,4.73
2017-09-25T19:58:18.984Z,4.53
2017-09-25T20:00:52.783Z,4.47
2017-09-25T20:03:26.718Z,4.93
2017-09-25T20:06:00.317Z,4.37
2017-09-25T20:08:34.801Z,4.60
2017-09-25T20:11:09.111Z,5.13
2017-09-25T20:13:42.730Z,5.37
2017-09-25T20:16:19.188Z,5.03
2017-09-25T20:18:53.515Z,5.00
2017-09-25T20:21:27.934Z,5.07
2017-09-25T20:24:02.498Z,5.53
2017-09-25T20:26:36.085Z,5.10
2017-09-25T20:29:10.589Z,4.60
2017-09-25T20:31:44.310Z,4.60
2017-09-25T20:34:17.891Z,4.90
2017-09-25T20:36:51.459Z,3.93
2017-09-25T20:39:25.236Z,4.67
2017-09-25T20:42:17.432Z,4.97
2017-09-25T20:44:51.126Z,4.17
2017-09-25T20:47:25.642Z,4.97
2017-09-25T20:49:59.670Z,4.20
2017-09-25T20:52:33.438Z,4.80
2017-09-25T20:55:07.198Z,5.43
2017-09-25T20:57:41.011Z,4.30
2017-09-25T21:00:14.685Z,4.73
2017-09-25T21:02:48.302Z,5.33
2017-09-25T21:05:21.918Z,6.13
2017-09-25T21:07:55.710Z,4.60
2017-09-25T21:10:30.256Z,4.37
2017-09-25T21:13:03.807Z,4.10
2017-09-25T21:15:37.509Z,4.87
2017-09-25T21:18:12.074Z,4.20
2017-09-25T21:20:45.661Z,4.67
2017-09-25T21:23:19.318Z,4.17
2017-09-25T21:26:10.678Z,4.97
2017-09-25T21:28:44.427Z,6.00
2017-09-25T21:31:18.191Z,4.43
2017-09-25T21:33:51.795Z,5.67
2017-09-25T21:36:25.600Z,4.20
2017-09-25T21:38:59.410Z,4.30
2017-09-25T21:41:33.002Z,4.67
2017-09-25T21:44:06.706Z,4.30
2017-09-25T21:46:40.362Z,4.67
2017-09-25T21:49:13.986Z,4.70
2017-09-25T21:51:47.610Z,4.90
2017-09-25T21:54:21.058Z,4.80
2017-09-25T21:56:56.136Z,5.10
2017-09-25T21:59:29.734Z,4.43
2017-09-25T22:02:03.453Z,5.00
2017-09-25T22:04:37.055Z,4.90
2017-09-25T22:07:10.525Z,4.63
2017-09-25T22:09:44.146Z,5.27
2017-09-25T22:12:17.753Z,5.30
2017-09-25T22:14:52.075Z,4.70
2017-09-25T22:17:25.780Z,5.10
2017-09-25T22:19:59.482Z,4.83
2017-09-25T22:22:33.170Z,5.50
2017-09-25T22:25:06.670Z,4.93
2017-09-25T22:27:41.086Z,5.60
2017-09-25T22:30:14.694Z,4.63
2017-09-25T22:32:48.313Z,5.20
2017-09-25T22:35:21.873Z,4.97
2017-09-25T22:37:55.522Z,5.10
2017-09-25T22:40:29.890Z,4.90
2017-09-25T22:46:10.917Z,5.60
2017-09-25T22:48:44.577Z,4.60
2017-09-25T22:51:18.181Z,4.70
2017-09-25T22:53:51.914Z,5.00
2017-09-25T22:56:25.469Z,5.67
2017-09-25T22:58:59.032Z,4.90
2017-09-25T23:01:32.699Z,4.63
2017-09-25T23:04:08.394Z,4.73
2017-09-25T23:06:42.134Z,5.10
2017-09-25T23:09:34.549Z,4.43
2017-09-25T23:12:08.071Z,5.27
2017-09-25T23:14:41.913Z,5.50
2017-09-25T23:17:15.520Z,4.50
2017-09-25T23:19:49.222Z,5.03
2017-09-25T23:22:23.613Z,4.77
2017-09-25T23:24:58.262Z,5.93
2017-09-25T23:27:31.966Z,6.00
2017-09-25T23:33:09.451Z,4.17
2017-09-25T23:35:43.178Z,5.70
2017-09-25T23:38:16.682Z,5.00
2017-09-25T23:40:50.482Z,4.90
2017-09-25T23:43:23.958Z,6.23
2017-09-25T23:45:57.686Z,5.93
2017-09-25T23:48:31.902Z,4.83
2017-09-25T23:51:06.294Z,4.87
2017-09-25T23:53:39.866Z,5.70
2017-09-25T23:56:14.251Z,5.37
2017-09-25T23:58:47.741Z,5.37
